Time;durP1;ratioP1;P1;durP2;ratioP2;P2;SDS_P1;SDS_P2;PMS_P1;PMS_P2;Temp;Humidity;BMP_temperature;BMP_pressure;BME280_temperature;BME280_humidity;BME280_pressure;Samples;Min_cycle;Max_cycle;Signal;HPM_P1;HPM_P2
2022/10/14 00:00:38;;;;;;;;;;;;;;;;;;5063427;28;19970;-66
2022/10/14 00:03:03;;;;;;;;;;;;;;;;;;5062072;28;19912;-66
2022/10/14 00:05:28;;;;;;;;;;;;;;;;;;5065358;28;19913;-66
2022/10/14 00:07:53;;;;;;;;;;;;;;;;;;5068874;28;20031;-66
2022/10/14 00:10:18;;;;;;;;;;;;;;;;;;5064190;28;19912;-66
2022/10/14 00:12:44;;;;;;;;;;;;;;;;;;5070515;28;20364;-66
2022/10/14 00:15:09;;;;;;;;;;;;;;;;;;5062430;28;19913;-66
2022/10/14 00:17:34;;;;;;;;;;;;;;;;;;5104082;28;19987;-66
2022/10/14 00:20:00;;;;;;;;;;;;;;;;;;5069559;28;19913;-66
2022/10/14 00:22:25;;;;;;;;;;;;;;;;;;5098998;28;20369;-66
2022/10/14 00:24:50;;;;;;;;;;;;;;;;;;5068591;28;20001;-66
2022/10/14 00:27:15;;;;;;;;;;;;;;;;;;5066219;28;19912;-66
2022/10/14 00:29:40;;;;;;;;;;;;;;;;;;5100056;27;19924;-65
2022/10/14 00:32:05;;;;;;;;;;;;;;;;;;5103806;28;19979;-66
2022/10/14 00:34:31;;;;;;;;;;;;;;;;;;5064141;28;19913;-66
2022/10/14 00:36:56;;;;;;;;;;;;;;;;;;5096243;28;19958;-65
2022/10/14 00:39:21;;;;;;;;;;;;;;;;;;5069636;28;20326;-66
2022/10/14 00:41:46;;;;;;;;;;;;;;;;;;5067391;28;20288;-67
2022/10/14 00:44:11;;;;;;;;;;;;;;;;;;5061719;28;19913;-66
2022/10/14 00:46:36;;;;;;;;;;;;;;;;;;5062940;28;19912;-66
2022/10/14 00:49:02;;;;;;;;;;;;;;;;;;5060831;28;19963;-65
2022/10/14 00:51:27;;;;;;;;;;;;;;;;;;5068509;28;19913;-66
2022/10/14 00:53:52;;;;;;;;;;;;;;;;;;5066159;28;19913;-66
2022/10/14 00:56:17;;;;;;;;;;;;;;;;;;5069669;28;19912;-66
2022/10/14 00:58:43;;;;;;;;;;;;;;;;;;5069124;28;19959;-65
2022/10/14 01:01:08;;;;;;;;;;;;;;;;;;5068689;28;20392;-65
2022/10/14 01:03:33;;;;;;;;;;;;;;;;;;5063405;28;20292;-65
2022/10/14 01:05:58;;;;;;;;;;;;;;;;;;5093883;28;19913;-66
2022/10/14 01:08:23;;;;;;;;;;;;;;;;;;5059876;28;20007;-65
2022/10/14 01:10:48;;;;;;;;;;;;;;;;;;5055736;28;19913;-66
2022/10/14 01:13:13;;;;;;;;;;;;;;;;;;5085336;28;20376;-66
2022/10/14 01:15:39;;;;;;;;;;;;;;;;;;5071772;28;20372;-66
2022/10/14 01:18:04;;;;;;;;;;;;;;;;;;5069443;28;20470;-65
2022/10/14 01:20:29;;;;;;;;;;;;;;;;;;5067775;28;19921;-66
2022/10/14 01:22:54;;;;;;;;;;;;;;;;;;5067547;28;19919;-66
2022/10/14 01:25:19;;;;;;;;;;;;;;;;;;5070938;28;19919;-66
2022/10/14 01:27:44;;;;;;;;;;;;;;;;;;5083487;28;19920;-66
2022/10/14 01:30:10;;;;;;;;;;;;;;;;;;5061610;28;19924;-66
2022/10/14 01:32:35;;;;;;;;;;;;;;;;;;5062557;28;19923;-66
2022/10/14 01:35:00;;;;;;;;;;;;;;;;;;5092360;28;20274;-66
2022/10/14 01:37:25;;;;;;;;;;;;;;;;;;5059692;28;19919;-66
2022/10/14 01:39:50;;;;;;;;;;;;;;;;;;5062109;28;19913;-66
2022/10/14 01:42:15;;;;;;;;;;;;;;;;;;5102506;28;20240;-66
2022/10/14 01:44:40;;;;;;;;;;;;;;;;;;5068506;28;19993;-66
2022/10/14 01:47:06;;;;;;;;;;;;;;;;;;5072501;28;19912;-66
2022/10/14 01:49:31;;;;;;;;;;;;;;;;;;5065797;28;19916;-66
2022/10/14 01:51:56;;;;;;;;;;;;;;;;;;5069679;28;20377;-66
2022/10/14 01:54:21;;;;;;;;;;;;;;;;;;5100950;28;19909;-66
2022/10/14 01:56:46;;;;;;;;;;;;;;;;;;5068395;28;19967;-65
2022/10/14 01:59:11;;;;;;;;;;;;;;;;;;5063965;28;19917;-65
2022/10/14 02:01:36;;;;;;;;;;;;;;;;;;5074811;28;19993;-66
2022/10/14 02:04:01;;;;;;;;;;;;;;;;;;5068583;28;19912;-66
2022/10/14 02:06:27;;;;;;;;;;;;;;;;;;5085614;28;19909;-65
2022/10/14 02:08:52;;;;;;;;;;;;;;;;;;5065112;28;19916;-65
2022/10/14 02:11:17;;;;;;;;;;;;;;;;;;5105161;28;19913;-66
2022/10/14 02:13:42;;;;;;;;;;;;;;;;;;5072964;28;19955;-66
2022/10/14 02:16:07;;;;;;;;;;;;;;;;;;5067759;28;19913;-66
2022/10/14 02:18:32;;;;;;;;;;;;;;;;;;5068695;28;19923;-66
2022/10/14 02:20:57;;;;;;;;;;;;;;;;;;5073251;28;19991;-66
2022/10/14 02:23:23;;;;;;;;;;;;;;;;;;5065891;28;19923;-66
2022/10/14 02:25:48;;;;;;;;;;;;;;;;;;5074898;28;19956;-65
2022/10/14 02:28:13;;;;;;;;;;;;;;;;;;5071337;28;19920;-66
2022/10/14 02:30:38;;;;;;;;;;;;;;;;;;5079678;28;20047;-65
2022/10/14 02:33:03;;;;;;;;;;;;;;;;;;5064335;28;19913;-66
2022/10/14 02:35:28;;;;;;;;;;;;;;;;;;5074880;28;20382;-65
2022/10/14 02:37:53;;;;;;;;;;;;;;;;;;5076689;28;19916;-65
2022/10/14 02:40:19;;;;;;;;;;;;;;;;;;5077005;28;19920;-64
2022/10/14 02:42:44;;;;;;;;;;;;;;;;;;5057130;28;19917;-66
2022/10/14 02:45:09;;;;;;;;;;;;;;;;;;5104558;28;19924;-66
2022/10/14 02:47:34;;;;;;;;;;;;;;;;;;5069205;28;19917;-66
2022/10/14 02:49:59;;;;;;;;;;;;;;;;;;5070140;28;19916;-65
2022/10/14 02:52:24;;;;;;;;;;;;;;;;;;5066432;28;19913;-65
2022/10/14 02:54:49;;;;;;;;;;;;;;;;;;5104275;28;20304;-65
2022/10/14 02:57:15;;;;;;;;;;;;;;;;;;5101577;28;19912;-65
2022/10/14 02:59:40;;;;;;;;;;;;;;;;;;5102296;28;19913;-65
2022/10/14 03:02:06;;;;;;;;;;;;;;;;;;5071802;28;20280;-65
2022/10/14 03:04:31;;;;;;;;;;;;;;;;;;5071916;28;19969;-65
2022/10/14 03:06:56;;;;;;;;;;;;;;;;;;5097622;28;19917;-65
2022/10/14 03:09:21;;;;;;;;;;;;;;;;;;5071168;28;19920;-65
2022/10/14 03:11:46;;;;;;;;;;;;;;;;;;5060733;28;19917;-65
2022/10/14 03:14:12;;;;;;;;;;;;;;;;;;5098434;28;19912;-65
2022/10/14 03:16:37;;;;;;;;;;;;;;;;;;5065143;28;19908;-65
2022/10/14 03:19:02;;;;;;;;;;;;;;;;;;5095598;28;20338;-66
2022/10/14 03:21:27;;;;;;;;;;;;;;;;;;5070840;28;20396;-66
2022/10/14 03:23:52;;;;;;;;;;;;;;;;;;5072334;28;19919;-65
2022/10/14 03:26:17;;;;;;;;;;;;;;;;;;5075029;28;19912;-66
2022/10/14 03:28:42;;;;;;;;;;;;;;;;;;5079007;28;20019;-66
2022/10/14 03:31:08;;;;;;;;;;;;;;;;;;5102229;27;19913;-65
2022/10/14 03:33:33;;;;;;;;;;;;;;;;;;5063763;28;19917;-66
2022/10/14 03:35:58;;;;;;;;;;;;;;;;;;5070505;28;19942;-66
2022/10/14 03:38:23;;;;;;;;;;;;;;;;;;5097998;28;19917;-65
2022/10/14 03:40:48;;;;;;;;;;;;;;;;;;5061979;28;20019;-65
2022/10/14 03:43:13;;;;;;;;;;;;;;;;;;5062893;28;20474;-66
2022/10/14 03:45:38;;;;;;;;;;;;;;;;;;5069022;28;19919;-66
2022/10/14 03:48:04;;;;;;;;;;;;;;;;;;5070672;28;20012;-66
2022/10/14 03:50:29;;;;;;;;;;;;;;;;;;5099442;27;19947;-66
2022/10/14 03:52:54;;;;;;;;;;;;;;;;;;5071943;28;20418;-66
2022/10/14 03:55:19;;;;;;;;;;;;;;;;;;5071424;28;19951;-66
2022/10/14 03:57:44;;;;;;;;;;;;;;;;;;5067859;28;19912;-67
2022/10/14 04:00:09;;;;;;;;;;;;;;;;;;5061822;28;19912;-67
2022/10/14 04:02:35;;;;;;;;;;;;;;;;;;5101544;28;19912;-65
2022/10/14 04:05:00;;;;;;;;;;;;;;;;;;5069282;28;20007;-65
2022/10/14 04:07:25;;;;;;;;;;;;;;;;;;5091978;28;20438;-65
2022/10/14 04:09:50;;;;;;;;;;;;;;;;;;5091430;28;19971;-65
2022/10/14 04:12:16;;;;;;;;;;;;;;;;;;5062674;28;19916;-65
2022/10/14 04:14:41;;;;;;;;;;;;;;;;;;5063983;28;19912;-65
2022/10/14 04:17:06;;;;;;;;;;;;;;;;;;5101831;28;20269;-65
2022/10/14 04:19:31;;;;;;;;;;;;;;;;;;5095918;28;21184;-65
2022/10/14 04:21:56;;;;;;;;;;;;;;;;;;5079900;28;19998;-65
2022/10/14 04:24:21;;;;;;;;;;;;;;;;;;5061009;28;19912;-66
2022/10/14 04:26:47;;;;;;;;;;;;;;;;;;5063709;28;19920;-65
2022/10/14 04:29:12;;;;;;;;;;;;;;;;;;5064721;28;19913;-65
2022/10/14 04:31:37;;;;;;;;;;;;;;;;;;5062551;28;19917;-65
2022/10/14 04:34:02;;;;;;;;;;;;;;;;;;5068608;28;19944;-66
2022/10/14 04:36:27;;;;;;;;;;;;;;;;;;5067961;28;19924;-66
2022/10/14 04:38:52;;;;;;;;;;;;;;;;;;5075564;28;20391;-66
2022/10/14 04:41:17;;;;;;;;;;;;;;;;;;5062373;28;20000;-65
2022/10/14 04:43:43;;;;;;;;;;;;;;;;;;5071868;28;19916;-66
2022/10/14 04:46:08;;;;;;;;;;;;;;;;;;5060239;28;19908;-63
2022/10/14 04:48:33;;;;;;;;;;;;;;;;;;5059182;28;19924;-67
2022/10/14 04:50:58;;;;;;;;;;;;;;;;;;5057336;28;19924;-66
2022/10/14 04:53:23;;;;;;;;;;;;;;;;;;5063204;28;20349;-65
2022/10/14 04:55:49;;;;;;;;;;;;;;;;;;5066197;28;20361;-66
2022/10/14 04:58:14;;;;;;;;;;;;;;;;;;5056537;28;19923;-66
2022/10/14 05:00:39;;;;;;;;;;;;;;;;;;5068595;28;19998;-66
2022/10/14 05:03:04;;;;;;;;;;;;;;;;;;5095474;28;19921;-66
2022/10/14 05:05:29;;;;;;;;;;;;;;;;;;5094854;28;20315;-66
2022/10/14 05:07:54;;;;;;;;;;;;;;;;;;5067156;28;19912;-66
2022/10/14 05:10:19;;;;;;;;;;;;;;;;;;5065918;28;20439;-66
2022/10/14 05:12:44;;;;;;;;;;;;;;;;;;5059476;28;19912;-66
2022/10/14 05:15:10;;;;;;;;;;;;;;;;;;5063070;28;19967;-65
2022/10/14 05:17:36;;;;;;;;;;;;;;;;;;5057469;28;19920;-65
2022/10/14 05:20:01;;;;;;;;;;;;;;;;;;5054141;28;20472;-66
2022/10/14 05:22:26;;;;;;;;;;;;;;;;;;5067957;28;19942;-65
2022/10/14 05:24:51;;;;;;;;;;;;;;;;;;5087643;28;19913;-65
2022/10/14 05:27:17;;;;;;;;;;;;;;;;;;5057322;28;19908;-65
2022/10/14 05:29:42;;;;;;;;;;;;;;;;;;5063103;28;19964;-66
2022/10/14 05:32:07;;;;;;;;;;;;;;;;;;5068513;28;19939;-65
2022/10/14 05:34:32;;;;;;;;;;;;;;;;;;5069674;28;20400;-65
2022/10/14 05:36:57;;;;;;;;;;;;;;;;;;5062986;28;20383;-65
2022/10/14 05:39:23;;;;;;;;;;;;;;;;;;5062909;28;19917;-65
2022/10/14 05:41:48;;;;;;;;;;;;;;;;;;5054318;28;19909;-66
2022/10/14 05:44:13;;;;;;;;;;;;;;;;;;5104179;28;20384;-65
2022/10/14 05:46:38;;;;;;;;;;;;;;;;;;5095603;28;19927;-65
2022/10/14 05:49:04;;;;;;;;;;;;;;;;;;5104806;28;20405;-65
2022/10/14 05:51:30;;;;;;;;;;;;;;;;;;5073645;28;20021;-65
2022/10/14 05:53:55;;;;;;;;;;;;;;;;;;5074038;28;20011;-65
2022/10/14 05:56:20;;;;;;;;;;;;;;;;;;5071099;28;20549;-65
2022/10/14 05:58:45;;;;;;;;;;;;;;;;;;5082411;28;20280;-66
2022/10/14 06:01:11;;;;;;;;;;;;;;;;;;5076442;28;19917;-65
2022/10/14 06:03:36;;;;;;;;;;;;;;;;;;5081558;28;20265;-65
2022/10/14 06:06:01;;;;;;;;;;;;;;;;;;5081178;28;19919;-65
2022/10/14 06:08:26;;;;;;;;;;;;;;;;;;5071844;28;19978;-66
2022/10/14 06:10:51;;;;;;;;;;;;;;;;;;5107169;28;19981;-65
2022/10/14 06:13:16;;;;;;;;;;;;;;;;;;5067102;28;19977;-66
2022/10/14 06:15:42;;;;;;;;;;;;;;;;;;5115985;27;19916;-66
2022/10/14 06:18:07;;;;;;;;;;;;;;;;;;5095831;28;19931;-66
2022/10/14 06:20:32;;;;;;;;;;;;;;;;;;5076436;28;19927;-66
2022/10/14 06:22:57;;;;;;;;;;;;;;;;;;5073870;28;19963;-66
2022/10/14 06:25:22;;;;;;;;;;;;;;;;;;5074206;28;20273;-66
2022/10/14 06:27:48;;;;;;;;;;;;;;;;;;5069739;28;20387;-65
2022/10/14 06:30:13;;;;;;;;;;;;;;;;;;5075292;28;19921;-65
2022/10/14 06:32:38;;;;;;;;;;;;;;;;;;5083858;28;19962;-66
2022/10/14 06:35:03;;;;;;;;;;;;;;;;;;5107493;28;19908;-66
2022/10/14 06:37:28;;;;;;;;;;;;;;;;;;5071538;28;19919;-65
2022/10/14 06:39:53;;;;;;;;;;;;;;;;;;5086988;28;19943;-64
2022/10/14 06:42:18;;;;;;;;;;;;;;;;;;5093446;28;19908;-65
2022/10/14 06:44:44;;;;;;;;;;;;;;;;;;5089390;28;19919;-65
2022/10/14 06:47:09;;;;;;;;;;;;;;;;;;5070729;28;19912;-66
2022/10/14 06:49:34;;;;;;;;;;;;;;;;;;5068511;28;20455;-66
2022/10/14 06:51:59;;;;;;;;;;;;;;;;;;5074120;28;19963;-65
2022/10/14 06:54:24;;;;;;;;;;;;;;;;;;5073347;28;19908;-66
2022/10/14 06:56:49;;;;;;;;;;;;;;;;;;5073026;28;19913;-65
2022/10/14 06:59:14;;;;;;;;;;;;;;;;;;5069331;28;19993;-65
2022/10/14 07:01:40;;;;;;;;;;;;;;;;;;5074125;28;19911;-66
2022/10/14 07:04:05;;;;;;;;;;;;;;;;;;5073215;28;19924;-65
2022/10/14 07:06:30;;;;;;;;;;;;;;;;;;5091131;28;19915;-65
2022/10/14 07:08:55;;;;;;;;;;;;;;;;;;5070703;28;19923;-65
2022/10/14 07:11:20;;;;;;;;;;;;;;;;;;5073885;28;19915;-66
2022/10/14 07:13:45;;;;;;;;;;;;;;;;;;5103438;28;20381;-66
2022/10/14 07:16:11;;;;;;;;;;;;;;;;;;5065961;28;19916;-65
2022/10/14 07:18:36;;;;;;;;;;;;;;;;;;5059756;28;21804;-64
2022/10/14 07:21:02;;;;;;;;;;;;;;;;;;5096723;28;19967;-65
2022/10/14 07:23:27;;;;;;;;;;;;;;;;;;5070880;28;19916;-66
2022/10/14 07:25:52;;;;;;;;;;;;;;;;;;5069743;28;20027;-66
2022/10/14 07:28:17;;;;;;;;;;;;;;;;;;5065704;28;19920;-65
2022/10/14 07:30:42;;;;;;;;;;;;;;;;;;5094673;28;19913;-66
2022/10/14 07:33:07;;;;;;;;;;;;;;;;;;5064417;28;20322;-66
2022/10/14 07:35:32;;;;;;;;;;;;;;;;;;5105304;28;20388;-66
2022/10/14 07:37:58;;;;;;;;;;;;;;;;;;5062358;28;20380;-66
2022/10/14 07:40:23;;;;;;;;;;;;;;;;;;5069934;28;20034;-66
2022/10/14 07:42:48;;;;;;;;;;;;;;;;;;5071771;28;19919;-66
2022/10/14 07:45:15;;;;;;;;;;;;;;;;;;5071719;28;19919;-66
2022/10/14 07:47:40;;;;;;;;;;;;;;;;;;5065742;28;19920;-65
2022/10/14 07:50:05;;;;;;;;;;;;;;;;;;5064482;28;20331;-66
2022/10/14 07:52:30;;;;;;;;;;;;;;;;;;5066855;28;19908;-66
2022/10/14 07:54:55;;;;;;;;;;;;;;;;;;5068079;28;19908;-66
2022/10/14 07:57:22;;;;;;;;;;;;;;;;;;5064832;28;19921;-66
2022/10/14 07:59:47;;;;;;;;;;;;;;;;;;5069199;28;19958;-66
2022/10/14 08:02:12;;;;;;;;;;;;;;;;;;5075621;28;19940;-65
2022/10/14 08:04:37;;;;;;;;;;;;;;;;;;5074187;28;19920;-65
2022/10/14 08:07:05;;;;;;;;;;;;;;;;;;5106137;27;19912;-65
2022/10/14 08:09:30;;;;;;;;;;;;;;;;;;5091280;28;19983;-65
2022/10/14 08:11:55;;;;;;;;;;;;;;;;;;5102693;28;20011;-65
2022/10/14 08:14:21;;;;;;;;;;;;;;;;;;5069342;28;19913;-65
2022/10/14 08:16:46;;;;;;;;;;;;;;;;;;5054443;28;19966;-66
2022/10/14 08:19:11;;;;;;;;;;;;;;;;;;5096293;28;20015;-66
2022/10/14 08:21:36;;;;;;;;;;;;;;;;;;5061331;28;19920;-66
2022/10/14 08:24:01;;;;;;;;;;;;;;;;;;5098264;28;19942;-65
2022/10/14 08:26:26;;;;;;;;;;;;;;;;;;5065789;28;19908;-65
2022/10/14 08:28:52;;;;;;;;;;;;;;;;;;5069905;28;19939;-65
2022/10/14 08:31:17;;;;;;;;;;;;;;;;;;5068807;28;19978;-65
2022/10/14 08:33:42;;;;;;;;;;;;;;;;;;5071405;28;19920;-66
2022/10/14 08:36:07;;;;;;;;;;;;;;;;;;5069639;28;19957;-65
2022/10/14 08:38:32;;;;;;;;;;;;;;;;;;5097082;28;20347;-65
2022/10/14 08:40:58;;;;;;;;;;;;;;;;;;5072086;28;20301;-65
2022/10/14 08:43:23;;;;;;;;;;;;;;;;;;5061093;28;19955;-65
2022/10/14 08:45:48;;;;;;;;;;;;;;;;;;5067373;28;19923;-65
2022/10/14 08:48:13;;;;;;;;;;;;;;;;;;5058745;28;19960;-65
2022/10/14 08:50:38;;;;;;;;;;;;;;;;;;5092382;28;19974;-65
2022/10/14 08:53:03;;;;;;;;;;;;;;;;;;5062601;28;20292;-65
2022/10/14 08:55:28;;;;;;;;;;;;;;;;;;5054837;28;20015;-67
2022/10/14 08:57:54;;;;;;;;;;;;;;;;;;5065405;28;19924;-65
2022/10/14 09:00:19;;;;;;;;;;;;;;;;;;5099188;28;19913;-65
2022/10/14 09:02:44;;;;;;;;;;;;;;;;;;5069980;28;19913;-66
2022/10/14 09:05:09;;;;;;;;;;;;;;;;;;5066417;28;19916;-66
2022/10/14 09:07:34;;;;;;;;;;;;;;;;;;5070649;28;19953;-65
2022/10/14 09:09:59;;;;;;;;;;;;;;;;;;5064295;28;19916;-65
2022/10/14 09:12:25;;;;;;;;;;;;;;;;;;5071810;28;19935;-65
2022/10/14 09:14:50;;;;;;;;;;;;;;;;;;5106039;28;19934;-65
2022/10/14 09:17:15;;;;;;;;;;;;;;;;;;5060217;28;20051;-66
2022/10/14 09:19:40;;;;;;;;;;;;;;;;;;5066343;28;20387;-64
2022/10/14 09:22:05;;;;;;;;;;;;;;;;;;5071506;28;19924;-66
2022/10/14 09:24:31;;;;;;;;;;;;;;;;;;5071161;28;19916;-66
2022/10/14 09:26:56;;;;;;;;;;;;;;;;;;5072775;28;19912;-65
2022/10/14 09:29:21;;;;;;;;;;;;;;;;;;5105418;28;19916;-65
2022/10/14 09:31:46;;;;;;;;;;;;;;;;;;5105866;28;20369;-64
2022/10/14 09:34:11;;;;;;;;;;;;;;;;;;5067986;28;20377;-65
2022/10/14 09:36:37;;;;;;;;;;;;;;;;;;5106013;28;19917;-65
2022/10/14 09:39:02;;;;;;;;;;;;;;;;;;5075557;28;19913;-65
2022/10/14 09:41:27;;;;;;;;;;;;;;;;;;5107555;28;19916;-65
2022/10/14 09:43:52;;;;;;;;;;;;;;;;;;5105982;28;19952;-66
2022/10/14 09:46:18;;;;;;;;;;;;;;;;;;5104798;28;19920;-65
2022/10/14 09:48:43;;;;;;;;;;;;;;;;;;5089210;28;19961;-65
2022/10/14 09:51:09;;;;;;;;;;;;;;;;;;5065814;28;20318;-65
2022/10/14 09:53:34;;;;;;;;;;;;;;;;;;5068269;28;19919;-65
2022/10/14 09:55:59;;;;;;;;;;;;;;;;;;5062210;28;20329;-65
2022/10/14 09:58:24;;;;;;;;;;;;;;;;;;5107960;28;20006;-65
2022/10/14 10:00:49;;;;;;;;;;;;;;;;;;5073833;28;19920;-65
2022/10/14 10:03:14;;;;;;;;;;;;;;;;;;5064814;28;20018;-65
2022/10/14 10:05:39;;;;;;;;;;;;;;;;;;5102032;28;20025;-65
2022/10/14 10:08:05;;;;;;;;;;;;;;;;;;5106294;28;19916;-64
2022/10/14 10:10:30;;;;;;;;;;;;;;;;;;5053488;28;19919;-65
2022/10/14 10:12:55;;;;;;;;;;;;;;;;;;5056009;28;19908;-66
2022/10/14 10:15:20;;;;;;;;;;;;;;;;;;5065143;28;19912;-65
2022/10/14 10:17:46;;;;;;;;;;;;;;;;;;5074947;28;19936;-65
2022/10/14 10:20:11;;;;;;;;;;;;;;;;;;5066899;28;20429;-65
2022/10/14 10:22:38;;;;;;;;;;;;;;;;;;5070698;28;19920;-65
2022/10/14 10:25:03;;;;;;;;;;;;;;;;;;5098172;28;19917;-66
2022/10/14 10:27:28;;;;;;;;;;;;;;;;;;5065603;28;19912;-66
2022/10/14 10:29:56;;;;;;;;;;;;;;;;;;5073366;28;19917;-66
2022/10/14 10:32:21;;;;;;;;;;;;;;;;;;5072328;28;19913;-65
2022/10/14 10:34:46;;;;;;;;;;;;;;;;;;5070632;28;20327;-65
2022/10/14 10:37:12;;;;;;;;;;;;;;;;;;5062424;28;19921;-65
2022/10/14 10:39:37;;;;;;;;;;;;;;;;;;5092156;28;20011;-64
2022/10/14 10:42:02;;;;;;;;;;;;;;;;;;5093155;28;20036;-65
2022/10/14 10:44:28;;;;;;;;;;;;;;;;;;5074100;28;19962;-65
2022/10/14 10:46:53;;;;;;;;;;;;;;;;;;5068970;28;20262;-64
2022/10/14 10:49:18;;;;;;;;;;;;;;;;;;5057093;28;20289;-65
2022/10/14 10:51:44;;;;;;;;;;;;;;;;;;5069177;28;19913;-64
2022/10/14 10:54:09;;;;;;;;;;;;;;;;;;5066380;28;19963;-65
2022/10/14 10:56:34;;;;;;;;;;;;;;;;;;5097123;28;19920;-66
2022/10/14 10:59:00;;;;;;;;;;;;;;;;;;5074907;28;19908;-65
2022/10/14 11:01:25;;;;;;;;;;;;;;;;;;5064676;28;19922;-65
2022/10/14 11:03:50;;;;;;;;;;;;;;;;;;5071260;28;19917;-65
2022/10/14 11:12:01;;;;;;;;;;;;;;;;;;5072748;28;20019;-64
2022/10/14 11:12:09;;;;;;;;;;;;;;;;;;5059324;28;19943;-64
2022/10/14 11:14:34;;;;;;;;;;;;;;;;;;5067839;28;20278;-64
2022/10/14 11:17:00;;;;;;;;;;;;;;;;;;5070416;28;19920;-65
2022/10/14 11:19:25;;;;;;;;;;;;;;;;;;5066326;28;19969;-65
2022/10/14 11:21:50;;;;;;;;;;;;;;;;;;5094983;28;19928;-64
2022/10/14 11:24:16;;;;;;;;;;;;;;;;;;5066697;28;20003;-65
2022/10/14 11:26:41;;;;;;;;;;;;;;;;;;5070357;28;19955;-65
2022/10/14 11:29:06;;;;;;;;;;;;;;;;;;5060305;28;19924;-65
2022/10/14 11:31:31;;;;;;;;;;;;;;;;;;5069069;28;19912;-64
2022/10/14 11:33:56;;;;;;;;;;;;;;;;;;5072103;28;20403;-65
2022/10/14 11:36:21;;;;;;;;;;;;;;;;;;5067529;28;19919;-65
2022/10/14 11:38:47;;;;;;;;;;;;;;;;;;5072349;28;20288;-65
2022/10/14 11:41:12;;;;;;;;;;;;;;;;;;5060999;28;19962;-65
2022/10/14 11:43:38;;;;;;;;;;;;;;;;;;5068016;28;19912;-65
2022/10/14 11:46:03;;;;;;;;;;;;;;;;;;5070910;28;19920;-64
2022/10/14 11:48:28;;;;;;;;;;;;;;;;;;5072250;28;19913;-65
2022/10/14 11:50:53;;;;;;;;;;;;;;;;;;5060618;28;19912;-65
2022/10/14 11:53:19;;;;;;;;;;;;;;;;;;5057373;28;19923;-64
2022/10/14 11:55:44;;;;;;;;;;;;;;;;;;5064670;28;19913;-65
2022/10/14 11:58:09;;;;;;;;;;;;;;;;;;5065649;28;20323;-65
2022/10/14 12:00:34;;;;;;;;;;;;;;;;;;5061244;28;19936;-64
2022/10/14 12:03:01;;;;;;;;;;;;;;;;;;5097282;28;20459;-64
2022/10/14 12:05:26;;;;;;;;;;;;;;;;;;5105677;28;19934;-64
2022/10/14 12:07:51;;;;;;;;;;;;;;;;;;5098108;28;19917;-64
2022/10/14 12:10:16;;;;;;;;;;;;;;;;;;5095638;28;19916;-65
2022/10/14 12:12:42;;;;;;;;;;;;;;;;;;5102407;28;19971;-64
2022/10/14 12:15:07;;;;;;;;;;;;;;;;;;5068333;28;19928;-64
2022/10/14 12:17:32;;;;;;;;;;;;;;;;;;5072021;28;20062;-63
2022/10/14 12:19:57;;;;;;;;;;;;;;;;;;5097457;28;19920;-65
2022/10/14 12:22:22;;;;;;;;;;;;;;;;;;5062596;28;19970;-63
2022/10/14 12:24:47;;;;;;;;;;;;;;;;;;5065149;28;20700;-64
2022/10/14 12:27:13;;;;;;;;;;;;;;;;;;5090778;28;19957;-62
2022/10/14 12:29:38;;;;;;;;;;;;;;;;;;5068675;28;19928;-63
2022/10/14 12:32:03;;;;;;;;;;;;;;;;;;5070868;28;19913;-63
2022/10/14 12:34:28;;;;;;;;;;;;;;;;;;5063545;28;19913;-64
2022/10/14 12:36:53;;;;;;;;;;;;;;;;;;5061016;28;19912;-63
2022/10/14 12:39:18;;;;;;;;;;;;;;;;;;5068473;28;19958;-62
2022/10/14 12:41:46;;;;;;;;;;;;;;;;;;5068533;28;19919;-63
2022/10/14 12:44:12;;;;;;;;;;;;;;;;;;5067329;28;20012;-63
2022/10/14 12:46:38;;;;;;;;;;;;;;;;;;5070672;28;20346;-63
2022/10/14 12:49:03;;;;;;;;;;;;;;;;;;5068549;28;19920;-63
2022/10/14 12:51:29;;;;;;;;;;;;;;;;;;5067012;28;19913;-62
2022/10/14 12:53:56;;;;;;;;;;;;;;;;;;5063859;28;19912;-63
2022/10/14 12:56:22;;;;;;;;;;;;;;;;;;5071015;28;19931;-63
2022/10/14 12:58:47;;;;;;;;;;;;;;;;;;5072112;28;20304;-63
2022/10/14 13:01:12;;;;;;;;;;;;;;;;;;5071199;28;20385;-63
2022/10/14 13:03:37;;;;;;;;;;;;;;;;;;5054909;28;20361;-62
2022/10/14 13:06:02;;;;;;;;;;;;;;;;;;5099880;28;19919;-63
2022/10/14 13:08:28;;;;;;;;;;;;;;;;;;5065796;28;19909;-63
2022/10/14 13:10:53;;;;;;;;;;;;;;;;;;5070072;28;20442;-63
2022/10/14 13:13:18;;;;;;;;;;;;;;;;;;5061391;28;20400;-62
2022/10/14 13:15:43;;;;;;;;;;;;;;;;;;5062782;28;19912;-62
2022/10/14 13:18:08;;;;;;;;;;;;;;;;;;5072224;28;20002;-63
2022/10/14 13:20:33;;;;;;;;;;;;;;;;;;5096287;28;19921;-62
2022/10/14 13:22:58;;;;;;;;;;;;;;;;;;5068027;28;19936;-62
2022/10/14 13:25:24;;;;;;;;;;;;;;;;;;5068860;28;20291;-64
2022/10/14 13:27:49;;;;;;;;;;;;;;;;;;5058480;28;20389;-63
2022/10/14 13:30:14;;;;;;;;;;;;;;;;;;5069799;28;19958;-63
2022/10/14 13:32:39;;;;;;;;;;;;;;;;;;5071385;28;19912;-63
2022/10/14 13:35:04;;;;;;;;;;;;;;;;;;5061969;28;20446;-63
2022/10/14 13:37:30;;;;;;;;;;;;;;;;;;5067746;28;19923;-64
2022/10/14 13:39:58;;;;;;;;;;;;;;;;;;5063083;28;19916;-64
2022/10/14 13:42:23;;;;;;;;;;;;;;;;;;5071878;28;19961;-62
2022/10/14 13:44:48;;;;;;;;;;;;;;;;;;5066746;28;19917;-62
2022/10/14 13:47:14;;;;;;;;;;;;;;;;;;5056891;28;20327;-62
2022/10/14 13:49:42;;;;;;;;;;;;;;;;;;5054734;28;21834;-63
2022/10/14 13:52:09;;;;;;;;;;;;;;;;;;5103755;28;20312;-62
2022/10/14 13:54:34;;;;;;;;;;;;;;;;;;5071017;28;19913;-62
2022/10/14 13:57:00;;;;;;;;;;;;;;;;;;5069349;28;19912;-62
2022/10/14 13:59:25;;;;;;;;;;;;;;;;;;5067484;28;19971;-63
2022/10/14 14:01:50;;;;;;;;;;;;;;;;;;5060466;28;19909;-62
2022/10/14 14:04:15;;;;;;;;;;;;;;;;;;5073476;28;19936;-63
2022/10/14 14:06:40;;;;;;;;;;;;;;;;;;5075119;28;19999;-62
2022/10/14 14:09:06;;;;;;;;;;;;;;;;;;5095666;28;19924;-63
2022/10/14 14:11:32;;;;;;;;;;;;;;;;;;5073778;28;19963;-63
2022/10/14 14:13:57;;;;;;;;;;;;;;;;;;5077338;28;19964;-62
2022/10/14 14:16:22;;;;;;;;;;;;;;;;;;5075032;28;20335;-62
2022/10/14 14:18:47;;;;;;;;;;;;;;;;;;5068196;28;19913;-63
2022/10/14 14:21:13;;;;;;;;;;;;;;;;;;5064726;28;19967;-65
2022/10/14 14:23:38;;;;;;;;;;;;;;;;;;5072152;28;20003;-63
2022/10/14 14:26:03;;;;;;;;;;;;;;;;;;5105976;28;19916;-62
2022/10/14 14:28:28;;;;;;;;;;;;;;;;;;5071363;28;19919;-63
2022/10/14 14:30:53;;;;;;;;;;;;;;;;;;5073726;28;19912;-63
2022/10/14 14:33:18;;;;;;;;;;;;;;;;;;5105004;28;20330;-64
2022/10/14 14:35:43;;;;;;;;;;;;;;;;;;5067003;28;19934;-62
2022/10/14 14:38:09;;;;;;;;;;;;;;;;;;5074570;28;19909;-62
2022/10/14 14:40:34;;;;;;;;;;;;;;;;;;5066562;28;20410;-62
2022/10/14 14:42:59;;;;;;;;;;;;;;;;;;5071279;28;20392;-62
2022/10/14 14:45:24;;;;;;;;;;;;;;;;;;5064407;28;20399;-62
2022/10/14 14:47:49;;;;;;;;;;;;;;;;;;5073209;28;19908;-63
2022/10/14 14:50:15;;;;;;;;;;;;;;;;;;5057024;28;19924;-63
2022/10/14 14:52:40;;;;;;;;;;;;;;;;;;5072585;28;19908;-63
2022/10/14 14:55:05;;;;;;;;;;;;;;;;;;5067594;28;19913;-63
2022/10/14 14:57:30;;;;;;;;;;;;;;;;;;5054581;28;19962;-63
2022/10/14 14:59:55;;;;;;;;;;;;;;;;;;5068132;28;19991;-63
2022/10/14 15:02:21;;;;;;;;;;;;;;;;;;5072961;28;19909;-63
2022/10/14 15:04:48;;;;;;;;;;;;;;;;;;5073582;28;19908;-63
2022/10/14 15:07:15;;;;;;;;;;;;;;;;;;5070665;28;19912;-62
2022/10/14 15:09:40;;;;;;;;;;;;;;;;;;5072163;28;20295;-62
2022/10/14 15:12:05;;;;;;;;;;;;;;;;;;5102463;28;19916;-62
2022/10/14 15:14:31;;;;;;;;;;;;;;;;;;5104808;28;19995;-63
2022/10/14 15:16:56;;;;;;;;;;;;;;;;;;5097281;28;19926;-63
2022/10/14 15:19:21;;;;;;;;;;;;;;;;;;5068486;28;20019;-63
2022/10/14 15:21:46;;;;;;;;;;;;;;;;;;5068081;28;19924;-63
2022/10/14 15:24:11;;;;;;;;;;;;;;;;;;5072759;28;20380;-62
2022/10/14 15:26:37;;;;;;;;;;;;;;;;;;5067878;28;20034;-64
2022/10/14 15:29:04;;;;;;;;;;;;;;;;;;5071239;28;20283;-62
2022/10/14 15:31:29;;;;;;;;;;;;;;;;;;5061696;28;20258;-63
2022/10/14 15:33:54;;;;;;;;;;;;;;;;;;5105472;28;20400;-60
2022/10/14 15:36:19;;;;;;;;;;;;;;;;;;5069141;28;19916;-60
2022/10/14 15:38:44;;;;;;;;;;;;;;;;;;5093644;28;19908;-61
2022/10/14 15:41:09;;;;;;;;;;;;;;;;;;5090979;28;19955;-61
2022/10/14 15:43:38;;;;;;;;;;;;;;;;;;5065013;28;20399;-61
2022/10/14 15:48:47;;;;;;;;;;;;;;;;;;5071051;28;19928;-57
2022/10/14 15:51:12;;;;;;;;;;;;;;;;;;5069247;28;19912;-58
2022/10/14 15:53:37;;;;;;;;;;;;;;;;;;5069307;28;19920;-62
2022/10/14 15:56:03;;;;;;;;;;;;;;;;;;5069569;28;20348;-57
2022/10/14 15:58:29;;;;;;;;;;;;;;;;;;5067211;28;19917;-58
2022/10/14 16:00:54;;;;;;;;;;;;;;;;;;5069088;28;19927;-57
2022/10/14 16:03:19;;;;;;;;;;;;;;;;;;5067703;28;19953;-59
2022/10/14 16:05:44;;;;;;;;;;;;;;;;;;5066855;28;19980;-57
2022/10/14 16:08:10;;;;;;;;;;;;;;;;;;5069944;28;19942;-58
2022/10/14 16:10:35;;;;;;;;;;;;;;;;;;5067163;28;19913;-58
2022/10/14 16:13:00;;;;;;;;;;;;;;;;;;5052914;28;20059;-58
2022/10/14 16:15:26;;;;;;;;;;;;;;;;;;5067029;28;20360;-58
2022/10/14 16:17:51;;;;;;;;;;;;;;;;;;5069190;28;19920;-58
2022/10/14 16:20:16;;;;;;;;;;;;;;;;;;5065057;28;20316;-57
2022/10/14 16:22:41;;;;;;;;;;;;;;;;;;5072063;28;20272;-57
2022/10/14 16:25:06;;;;;;;;;;;;;;;;;;5070404;28;20563;-56
2022/10/14 16:27:31;;;;;;;;;;;;;;;;;;5069992;28;19912;-57
2022/10/14 16:29:56;;;;;;;;;;;;;;;;;;5071423;28;19924;-59
2022/10/14 16:32:22;;;;;;;;;;;;;;;;;;5067040;28;19913;-58
2022/10/14 16:34:47;;;;;;;;;;;;;;;;;;5068508;28;19921;-58
2022/10/14 16:37:12;;;;;;;;;;;;;;;;;;5069004;28;20372;-56